sensor_id;sensor_type;location;lat;lon;timestamp;P1;durP1;ratioP1;P2;durP2;ratioP2
18322;SDS011;9287;49.456;11.064;2023-02-01T00:00:43;4.70;;;4.30;;
18322;SDS011;9287;49.456;11.064;2023-02-01T00:03:11;5.57;;;4.63;;
18322;SDS011;9287;49.456;11.064;2023-02-01T00:05:40;6.17;;;4.60;;
18322;SDS011;9287;49.456;11.064;2023-02-01T00:08:08;4.40;;;4.00;;
18322;SDS011;9287;49.456;11.064;2023-02-01T00:10:37;5.00;;;4.37;;
18322;SDS011;9287;49.456;11.064;2023-02-01T00:13:06;5.33;;;4.43;;
18322;SDS011;9287;49.456;11.064;2023-02-01T00:15:37;7.33;;;4.97;;
18322;SDS011;9287;49.456;11.064;2023-02-01T00:18:05;5.57;;;4.50;;
18322;SDS011;9287;49.456;11.064;2023-02-01T00:20:33;5.67;;;4.90;;
18322;SDS011;9287;49.456;11.064;2023-02-01T00:23:01;5.53;;;4.40;;
18322;SDS011;9287;49.456;11.064;2023-02-01T00:25:29;5.00;;;4.50;;
18322;SDS011;9287;49.456;11.064;2023-02-01T00:27:58;6.50;;;4.10;;
18322;SDS011;9287;49.456;11.064;2023-02-01T00:30:26;7.33;;;4.47;;
18322;SDS011;9287;49.456;11.064;2023-02-01T00:32:54;5.00;;;4.50;;
18322;SDS011;9287;49.456;11.064;2023-02-01T00:35:22;5.13;;;4.20;;
18322;SDS011;9287;49.456;11.064;2023-02-01T00:37:49;5.00;;;4.13;;
18322;SDS011;9287;49.456;11.064;2023-02-01T00:40:17;4.30;;;3.90;;
18322;SDS011;9287;49.456;11.064;2023-02-01T00:42:46;4.17;;;3.77;;
18322;SDS011;9287;49.456;11.064;2023-02-01T00:45:15;5.63;;;4.50;;
18322;SDS011;9287;49.456;11.064;2023-02-01T00:47:42;5.70;;;4.17;;
18322;SDS011;9287;49.456;11.064;2023-02-01T00:50:10;6.30;;;3.87;;
18322;SDS011;9287;49.456;11.064;2023-02-01T00:52:38;4.73;;;4.23;;
18322;SDS011;9287;49.456;11.064;2023-02-01T00:55:06;4.20;;;3.53;;
18322;SDS011;9287;49.456;11.064;2023-02-01T00:57:34;3.93;;;3.63;;
18322;SDS011;9287;49.456;11.064;2023-02-01T01:00:02;5.47;;;4.40;;
18322;SDS011;9287;49.456;11.064;2023-02-01T01:02:31;5.87;;;4.70;;
18322;SDS011;9287;49.456;11.064;2023-02-01T01:04:59;6.37;;;3.87;;
18322;SDS011;9287;49.456;11.064;2023-02-01T01:07:27;5.17;;;3.67;;
18322;SDS011;9287;49.456;11.064;2023-02-01T01:09:55;5.10;;;4.23;;
18322;SDS011;9287;49.456;11.064;2023-02-01T01:12:23;5.30;;;4.63;;
18322;SDS011;9287;49.456;11.064;2023-02-01T01:14:50;4.77;;;4.00;;
18322;SDS011;9287;49.456;11.064;2023-02-01T01:17:18;6.07;;;4.03;;
18322;SDS011;9287;49.456;11.064;2023-02-01T01:19:47;6.17;;;4.17;;
18322;SDS011;9287;49.456;11.064;2023-02-01T01:22:15;4.37;;;3.93;;
18322;SDS011;9287;49.456;11.064;2023-02-01T01:24:44;4.77;;;4.37;;
18322;SDS011;9287;49.456;11.064;2023-02-01T01:27:11;5.53;;;4.03;;
18322;SDS011;9287;49.456;11.064;2023-02-01T01:29:40;5.60;;;4.63;;
18322;SDS011;9287;49.456;11.064;2023-02-01T01:32:07;4.53;;;3.83;;
18322;SDS011;9287;49.456;11.064;2023-02-01T01:34:35;6.07;;;4.37;;
18322;SDS011;9287;49.456;11.064;2023-02-01T01:37:04;6.27;;;5.20;;
18322;SDS011;9287;49.456;11.064;2023-02-01T01:39:32;5.63;;;3.80;;
18322;SDS011;9287;49.456;11.064;2023-02-01T01:42:00;5.03;;;4.50;;
18322;SDS011;9287;49.456;11.064;2023-02-01T01:47:25;6.23;;;4.67;;
18322;SDS011;9287;49.456;11.064;2023-02-01T01:49:54;4.77;;;4.37;;
18322;SDS011;9287;49.456;11.064;2023-02-01T01:52:23;6.63;;;4.17;;
18322;SDS011;9287;49.456;11.064;2023-02-01T01:54:51;4.67;;;4.10;;
18322;SDS011;9287;49.456;11.064;2023-02-01T01:57:22;4.03;;;3.53;;
18322;SDS011;9287;49.456;11.064;2023-02-01T01:59:54;4.53;;;3.70;;
18322;SDS011;9287;49.456;11.064;2023-02-01T02:02:27;4.50;;;4.10;;
18322;SDS011;9287;49.456;11.064;2023-02-01T02:04:56;6.00;;;3.90;;
18322;SDS011;9287;49.456;11.064;2023-02-01T02:07:26;6.03;;;4.20;;
18322;SDS011;9287;49.456;11.064;2023-02-01T02:09:57;4.03;;;3.23;;
18322;SDS011;9287;49.456;11.064;2023-02-01T02:12:26;5.57;;;3.37;;
18322;SDS011;9287;49.456;11.064;2023-02-01T02:14:54;4.07;;;2.90;;
18322;SDS011;9287;49.456;11.064;2023-02-01T02:17:26;5.53;;;3.33;;
18322;SDS011;9287;49.456;11.064;2023-02-01T02:20:17;3.17;;;2.83;;
18322;SDS011;9287;49.456;11.064;2023-02-01T02:29:07;5.30;;;3.27;;
18322;SDS011;9287;49.456;11.064;2023-02-01T02:32:08;4.03;;;2.97;;
18322;SDS011;9287;49.456;11.064;2023-02-01T02:35:01;3.10;;;2.90;;
18322;SDS011;9287;49.456;11.064;2023-02-01T02:37:37;4.00;;;3.60;;
18322;SDS011;9287;49.456;11.064;2023-02-01T02:40:11;4.30;;;3.33;;
18322;SDS011;9287;49.456;11.064;2023-02-01T02:42:43;6.43;;;3.50;;
18322;SDS011;9287;49.456;11.064;2023-02-01T02:45:37;4.70;;;4.13;;
18322;SDS011;9287;49.456;11.064;2023-02-01T02:48:27;4.90;;;4.23;;
18322;SDS011;9287;49.456;11.064;2023-02-01T02:51:00;4.63;;;4.20;;
18322;SDS011;9287;49.456;11.064;2023-02-01T02:53:51;5.60;;;4.30;;
18322;SDS011;9287;49.456;11.064;2023-02-01T02:56:42;4.40;;;3.80;;
18322;SDS011;9287;49.456;11.064;2023-02-01T02:59:28;5.03;;;4.53;;
18322;SDS011;9287;49.456;11.064;2023-02-01T03:02:15;5.73;;;5.13;;
18322;SDS011;9287;49.456;11.064;2023-02-01T03:05:02;5.70;;;5.20;;
18322;SDS011;9287;49.456;11.064;2023-02-01T03:07:52;6.37;;;5.17;;
18322;SDS011;9287;49.456;11.064;2023-02-01T03:10:26;5.57;;;4.83;;
18322;SDS011;9287;49.456;11.064;2023-02-01T03:13:01;6.77;;;4.80;;
18322;SDS011;9287;49.456;11.064;2023-02-01T03:15:34;4.80;;;4.30;;
18322;SDS011;9287;49.456;11.064;2023-02-01T03:18:10;5.07;;;4.27;;
18322;SDS011;9287;49.456;11.064;2023-02-01T03:20:43;5.43;;;3.93;;
18322;SDS011;9287;49.456;11.064;2023-02-01T03:23:15;5.23;;;4.07;;
18322;SDS011;9287;49.456;11.064;2023-02-01T03:25:47;5.37;;;4.87;;
18322;SDS011;9287;49.456;11.064;2023-02-01T03:28:17;7.63;;;4.87;;
18322;SDS011;9287;49.456;11.064;2023-02-01T03:30:50;6.97;;;4.87;;
18322;SDS011;9287;49.456;11.064;2023-02-01T03:33:20;5.07;;;4.33;;
18322;SDS011;9287;49.456;11.064;2023-02-01T03:35:54;6.40;;;4.80;;
18322;SDS011;9287;49.456;11.064;2023-02-01T03:38:29;6.70;;;5.40;;
18322;SDS011;9287;49.456;11.064;2023-02-01T03:41:02;8.40;;;5.17;;
18322;SDS011;9287;49.456;11.064;2023-02-01T03:43:38;6.00;;;5.30;;
18322;SDS011;9287;49.456;11.064;2023-02-01T03:46:15;5.57;;;5.07;;
18322;SDS011;9287;49.456;11.064;2023-02-01T03:48:48;7.87;;;5.60;;
18322;SDS011;9287;49.456;11.064;2023-02-01T03:51:18;6.80;;;4.67;;
18322;SDS011;9287;49.456;11.064;2023-02-01T03:53:49;6.43;;;5.63;;
18322;SDS011;9287;49.456;11.064;2023-02-01T03:56:17;7.83;;;5.47;;
18322;SDS011;9287;49.456;11.064;2023-02-01T03:58:48;5.73;;;5.00;;
18322;SDS011;9287;49.456;11.064;2023-02-01T04:01:26;7.57;;;5.13;;
18322;SDS011;9287;49.456;11.064;2023-02-01T04:03:55;5.13;;;4.63;;
18322;SDS011;9287;49.456;11.064;2023-02-01T04:06:24;7.67;;;5.53;;
18322;SDS011;9287;49.456;11.064;2023-02-01T04:08:53;7.17;;;5.07;;
18322;SDS011;9287;49.456;11.064;2023-02-01T04:11:21;6.73;;;5.00;;
18322;SDS011;9287;49.456;11.064;2023-02-01T04:13:48;7.13;;;5.40;;
18322;SDS011;9287;49.456;11.064;2023-02-01T04:16:16;6.30;;;5.70;;
18322;SDS011;9287;49.456;11.064;2023-02-01T04:18:44;6.20;;;4.60;;
18322;SDS011;9287;49.456;11.064;2023-02-01T04:21:11;7.90;;;5.37;;
18322;SDS011;9287;49.456;11.064;2023-02-01T04:23:39;5.73;;;4.87;;
18322;SDS011;9287;49.456;11.064;2023-02-01T04:26:08;7.53;;;5.90;;
18322;SDS011;9287;49.456;11.064;2023-02-01T04:28:35;5.87;;;4.90;;
18322;SDS011;9287;49.456;11.064;2023-02-01T04:31:03;6.17;;;4.70;;
18322;SDS011;9287;49.456;11.064;2023-02-01T04:33:32;6.33;;;4.40;;
18322;SDS011;9287;49.456;11.064;2023-02-01T04:35:59;6.83;;;4.83;;
18322;SDS011;9287;49.456;11.064;2023-02-01T04:38:27;6.70;;;5.00;;
18322;SDS011;9287;49.456;11.064;2023-02-01T04:40:55;6.63;;;5.40;;
18322;SDS011;9287;49.456;11.064;2023-02-01T04:43:24;7.93;;;5.70;;
18322;SDS011;9287;49.456;11.064;2023-02-01T04:45:52;8.13;;;6.50;;
18322;SDS011;9287;49.456;11.064;2023-02-01T04:48:20;8.70;;;5.50;;
18322;SDS011;9287;49.456;11.064;2023-02-01T04:50:50;6.03;;;5.40;;
18322;SDS011;9287;49.456;11.064;2023-02-01T04:53:18;5.93;;;5.40;;
18322;SDS011;9287;49.456;11.064;2023-02-01T04:55:47;8.60;;;6.20;;
18322;SDS011;9287;49.456;11.064;2023-02-01T04:58:16;6.87;;;5.60;;
18322;SDS011;9287;49.456;11.064;2023-02-01T05:00:45;7.37;;;6.37;;
18322;SDS011;9287;49.456;11.064;2023-02-01T05:03:12;6.90;;;5.23;;
18322;SDS011;9287;49.456;11.064;2023-02-01T05:05:40;6.77;;;5.30;;
18322;SDS011;9287;49.456;11.064;2023-02-01T05:08:08;7.60;;;5.07;;
18322;SDS011;9287;49.456;11.064;2023-02-01T05:10:35;7.37;;;5.63;;
18322;SDS011;9287;49.456;11.064;2023-02-01T05:13:03;7.63;;;6.17;;
18322;SDS011;9287;49.456;11.064;2023-02-01T05:15:51;10.40;;;6.03;;
18322;SDS011;9287;49.456;11.064;2023-02-01T05:18:18;6.97;;;5.83;;
18322;SDS011;9287;49.456;11.064;2023-02-01T05:20:46;7.83;;;6.73;;
18322;SDS011;9287;49.456;11.064;2023-02-01T05:23:14;10.90;;;6.27;;
18322;SDS011;9287;49.456;11.064;2023-02-01T05:25:41;6.47;;;5.77;;
18322;SDS011;9287;49.456;11.064;2023-02-01T05:28:09;7.47;;;6.27;;
18322;SDS011;9287;49.456;11.064;2023-02-01T05:30:37;8.47;;;5.90;;
18322;SDS011;9287;49.456;11.064;2023-02-01T05:33:08;7.90;;;6.43;;
18322;SDS011;9287;49.456;11.064;2023-02-01T05:35:36;7.23;;;6.23;;
18322;SDS011;9287;49.456;11.064;2023-02-01T05:38:04;9.47;;;6.50;;
18322;SDS011;9287;49.456;11.064;2023-02-01T05:40:31;7.67;;;6.43;;
18322;SDS011;9287;49.456;11.064;2023-02-01T05:42:59;8.23;;;6.17;;
18322;SDS011;9287;49.456;11.064;2023-02-01T05:45:27;7.03;;;6.30;;
18322;SDS011;9287;49.456;11.064;2023-02-01T05:47:54;7.13;;;6.10;;
18322;SDS011;9287;49.456;11.064;2023-02-01T05:50:23;10.40;;;7.13;;
18322;SDS011;9287;49.456;11.064;2023-02-01T05:52:51;6.80;;;6.17;;
18322;SDS011;9287;49.456;11.064;2023-02-01T05:55:19;7.07;;;6.27;;
18322;SDS011;9287;49.456;11.064;2023-02-01T05:57:46;6.97;;;6.20;;
18322;SDS011;9287;49.456;11.064;2023-02-01T06:00:14;5.03;;;4.53;;
18322;SDS011;9287;49.456;11.064;2023-02-01T06:02:42;6.63;;;5.03;;
18322;SDS011;9287;49.456;11.064;2023-02-01T06:05:10;6.27;;;4.30;;
18322;SDS011;9287;49.456;11.064;2023-02-01T06:07:39;4.63;;;3.40;;
18322;SDS011;9287;49.456;11.064;2023-02-01T06:10:07;3.90;;;3.00;;
18322;SDS011;9287;49.456;11.064;2023-02-01T06:12:36;5.63;;;2.30;;
18322;SDS011;9287;49.456;11.064;2023-02-01T06:15:04;6.00;;;2.77;;
18322;SDS011;9287;49.456;11.064;2023-02-01T06:17:33;4.00;;;2.53;;
18322;SDS011;9287;49.456;11.064;2023-02-01T06:20:00;2.37;;;2.17;;
18322;SDS011;9287;49.456;11.064;2023-02-01T06:22:28;2.30;;;2.20;;
18322;SDS011;9287;49.456;11.064;2023-02-01T06:24:57;4.77;;;4.17;;
18322;SDS011;9287;49.456;11.064;2023-02-01T06:27:25;5.13;;;3.20;;
18322;SDS011;9287;49.456;11.064;2023-02-01T06:29:53;7.17;;;4.07;;
18322;SDS011;9287;49.456;11.064;2023-02-01T06:32:21;3.97;;;3.47;;
18322;SDS011;9287;49.456;11.064;2023-02-01T06:34:49;3.37;;;3.07;;
18322;SDS011;9287;49.456;11.064;2023-02-01T06:37:18;2.70;;;2.47;;
18322;SDS011;9287;49.456;11.064;2023-02-01T06:39:48;3.40;;;3.10;;
18322;SDS011;9287;49.456;11.064;2023-02-01T06:42:17;2.97;;;2.67;;
18322;SDS011;9287;49.456;11.064;2023-02-01T06:44:45;2.67;;;2.47;;
18322;SDS011;9287;49.456;11.064;2023-02-01T06:47:12;2.40;;;2.20;;
18322;SDS011;9287;49.456;11.064;2023-02-01T06:49:40;2.20;;;2.00;;
18322;SDS011;9287;49.456;11.064;2023-02-01T06:52:08;2.13;;;2.03;;
18322;SDS011;9287;49.456;11.064;2023-02-01T06:54:36;2.10;;;1.63;;
18322;SDS011;9287;49.456;11.064;2023-02-01T06:57:03;2.00;;;1.90;;
18322;SDS011;9287;49.456;11.064;2023-02-01T06:59:35;1.93;;;1.83;;
18322;SDS011;9287;49.456;11.064;2023-02-01T07:02:03;3.40;;;1.80;;
18322;SDS011;9287;49.456;11.064;2023-02-01T07:04:31;2.17;;;1.90;;
18322;SDS011;9287;49.456;11.064;2023-02-01T07:06:58;8.63;;;2.10;;
18322;SDS011;9287;49.456;11.064;2023-02-01T07:09:26;2.13;;;1.93;;
18322;SDS011;9287;49.456;11.064;2023-02-01T07:11:54;1.90;;;1.80;;
18322;SDS011;9287;49.456;11.064;2023-02-01T07:14:21;2.50;;;2.30;;
18322;SDS011;9287;49.456;11.064;2023-02-01T07:16:50;3.53;;;2.10;;
18322;SDS011;9287;49.456;11.064;2023-02-01T07:19:18;2.90;;;2.07;;
18322;SDS011;9287;49.456;11.064;2023-02-01T07:21:46;2.67;;;1.90;;
18322;SDS011;9287;49.456;11.064;2023-02-01T07:24:14;2.53;;;1.90;;
18322;SDS011;9287;49.456;11.064;2023-02-01T07:26:41;2.30;;;1.90;;
18322;SDS011;9287;49.456;11.064;2023-02-01T07:29:09;3.83;;;1.83;;
18322;SDS011;9287;49.456;11.064;2023-02-01T07:31:37;1.30;;;1.20;;
18322;SDS011;9287;49.456;11.064;2023-02-01T07:34:06;3.07;;;1.53;;
18322;SDS011;9287;49.456;11.064;2023-02-01T07:36:34;2.93;;;0.90;;
18322;SDS011;9287;49.456;11.064;2023-02-01T07:39:02;1.67;;;1.17;;
18322;SDS011;9287;49.456;11.064;2023-02-01T07:41:30;1.57;;;1.20;;
18322;SDS011;9287;49.456;11.064;2023-02-01T07:43:57;1.50;;;0.90;;
18322;SDS011;9287;49.456;11.064;2023-02-01T07:46:25;2.43;;;1.10;;
18322;SDS011;9287;49.456;11.064;2023-02-01T07:48:53;3.93;;;1.07;;
18322;SDS011;9287;49.456;11.064;2023-02-01T07:51:22;3.27;;;1.33;;
18322;SDS011;9287;49.456;11.064;2023-02-01T07:53:50;1.20;;;0.97;;
18322;SDS011;9287;49.456;11.064;2023-02-01T07:56:20;2.53;;;1.60;;
18322;SDS011;9287;49.456;11.064;2023-02-01T07:58:49;1.73;;;1.47;;
18322;SDS011;9287;49.456;11.064;2023-02-01T08:01:19;2.67;;;1.70;;
18322;SDS011;9287;49.456;11.064;2023-02-01T08:03:47;2.20;;;1.30;;
18322;SDS011;9287;49.456;11.064;2023-02-01T08:06:15;1.70;;;1.13;;
18322;SDS011;9287;49.456;11.064;2023-02-01T08:08:44;2.27;;;1.43;;
18322;SDS011;9287;49.456;11.064;2023-02-01T08:11:13;4.93;;;1.63;;
18322;SDS011;9287;49.456;11.064;2023-02-01T08:13:41;4.53;;;1.40;;
18322;SDS011;9287;49.456;11.064;2023-02-01T08:16:10;3.00;;;1.20;;
18322;SDS011;9287;49.456;11.064;2023-02-01T08:18:39;2.90;;;1.40;;
18322;SDS011;9287;49.456;11.064;2023-02-01T08:21:08;3.70;;;1.23;;
18322;SDS011;9287;49.456;11.064;2023-02-01T08:23:38;1.50;;;1.10;;
18322;SDS011;9287;49.456;11.064;2023-02-01T08:26:09;2.43;;;1.30;;
18322;SDS011;9287;49.456;11.064;2023-02-01T08:28:39;4.20;;;1.13;;
18322;SDS011;9287;49.456;11.064;2023-02-01T08:31:08;1.20;;;1.10;;
18322;SDS011;9287;49.456;11.064;2023-02-01T08:33:37;3.87;;;1.50;;
18322;SDS011;9287;49.456;11.064;2023-02-01T08:36:06;5.87;;;1.03;;
18322;SDS011;9287;49.456;11.064;2023-02-01T08:38:35;2.53;;;1.10;;
18322;SDS011;9287;49.456;11.064;2023-02-01T08:41:04;3.03;;;1.10;;
18322;SDS011;9287;49.456;11.064;2023-02-01T08:43:34;5.30;;;1.20;;
18322;SDS011;9287;49.456;11.064;2023-02-01T08:46:02;2.60;;;1.37;;
18322;SDS011;9287;49.456;11.064;2023-02-01T08:48:31;1.67;;;1.00;;
18322;SDS011;9287;49.456;11.064;2023-02-01T08:51:00;2.90;;;1.30;;
18322;SDS011;9287;49.456;11.064;2023-02-01T08:53:28;4.83;;;1.03;;
18322;SDS011;9287;49.456;11.064;2023-02-01T08:55:56;3.70;;;1.30;;
18322;SDS011;9287;49.456;11.064;2023-02-01T08:58:24;4.77;;;1.47;;
18322;SDS011;9287;49.456;11.064;2023-02-01T09:00:53;2.90;;;1.20;;
18322;SDS011;9287;49.456;11.064;2023-02-01T09:03:21;4.47;;;1.70;;
18322;SDS011;9287;49.456;11.064;2023-02-01T09:05:49;3.83;;;1.30;;
18322;SDS011;9287;49.456;11.064;2023-02-01T09:08:19;6.57;;;1.43;;
18322;SDS011;9287;49.456;11.064;2023-02-01T09:10:47;3.97;;;1.57;;
18322;SDS011;9287;49.456;11.064;2023-02-01T09:13:15;3.97;;;1.80;;
18322;SDS011;9287;49.456;11.064;2023-02-01T09:15:42;5.67;;;1.50;;
18322;SDS011;9287;49.456;11.064;2023-02-01T09:18:12;2.67;;;1.23;;
18322;SDS011;9287;49.456;11.064;2023-02-01T09:20:39;4.87;;;1.57;;
18322;SDS011;9287;49.456;11.064;2023-02-01T09:23:07;3.70;;;1.63;;
18322;SDS011;9287;49.456;11.064;2023-02-01T09:25:36;1.30;;;1.10;;
18322;SDS011;9287;49.456;11.064;2023-02-01T09:28:04;3.93;;;1.27;;
18322;SDS011;9287;49.456;11.064;2023-02-01T09:30:33;3.17;;;1.63;;
18322;SDS011;9287;49.456;11.064;2023-02-01T09:33:00;3.63;;;1.23;;
18322;SDS011;9287;49.456;11.064;2023-02-01T09:35:30;3.90;;;1.40;;
18322;SDS011;9287;49.456;11.064;2023-02-01T09:37:57;4.50;;;0.90;;
18322;SDS011;9287;49.456;11.064;2023-02-01T09:40:25;3.20;;;0.80;;
18322;SDS011;9287;49.456;11.064;2023-02-01T09:43:00;3.53;;;1.00;;
18322;SDS011;9287;49.456;11.064;2023-02-01T09:45:38;3.37;;;1.03;;
18322;SDS011;9287;49.456;11.064;2023-02-01T09:48:13;2.83;;;0.80;;
18322;SDS011;9287;49.456;11.064;2023-02-01T09:50:47;3.37;;;0.87;;
18322;SDS011;9287;49.456;11.064;2023-02-01T09:53:18;4.33;;;1.17;;
18322;SDS011;9287;49.456;11.064;2023-02-01T09:55:51;5.77;;;1.10;;
18322;SDS011;9287;49.456;11.064;2023-02-01T09:58:24;3.73;;;0.80;;
18322;SDS011;9287;49.456;11.064;2023-02-01T10:00:59;6.83;;;1.00;;
18322;SDS011;9287;49.456;11.064;2023-02-01T10:03:29;5.43;;;1.03;;
18322;SDS011;9287;49.456;11.064;2023-02-01T10:06:12;1.87;;;0.90;;
18322;SDS011;9287;49.456;11.064;2023-02-01T10:12:34;5.10;;;0.90;;
18322;SDS011;9287;49.456;11.064;2023-02-01T10:15:23;4.00;;;1.30;;
18322;SDS011;9287;49.456;11.064;2023-02-01T10:18:01;2.27;;;1.10;;
18322;SDS011;9287;49.456;11.064;2023-02-01T10:20:52;6.30;;;1.53;;
18322;SDS011;9287;49.456;11.064;2023-02-01T10:23:41;4.93;;;1.90;;
18322;SDS011;9287;49.456;11.064;2023-02-01T10:26:44;4.50;;;1.67;;
18322;SDS011;9287;49.456;11.064;2023-02-01T10:29:15;8.57;;;4.90;;
18322;SDS011;9287;49.456;11.064;2023-02-01T10:31:46;7.43;;;3.47;;
18322;SDS011;9287;49.456;11.064;2023-02-01T10:34:15;9.40;;;2.87;;
18322;SDS011;9287;49.456;11.064;2023-02-01T10:36:53;9.20;;;2.53;;
18322;SDS011;9287;49.456;11.064;2023-02-01T10:39:24;7.00;;;2.37;;
18322;SDS011;9287;49.456;11.064;2023-02-01T10:41:51;10.70;;;2.27;;
18322;SDS011;9287;49.456;11.064;2023-02-01T10:44:22;10.23;;;2.30;;
18322;SDS011;9287;49.456;11.064;2023-02-01T10:46:52;8.20;;;2.03;;
18322;SDS011;9287;49.456;11.064;2023-02-01T10:49:20;9.53;;;2.00;;
18322;SDS011;9287;49.456;11.064;2023-02-01T10:51:54;7.23;;;2.37;;
18322;SDS011;9287;49.456;11.064;2023-02-01T10:54:33;6.30;;;2.13;;
18322;SDS011;9287;49.456;11.064;2023-02-01T10:57:06;7.43;;;2.73;;
18322;SDS011;9287;49.456;11.064;2023-02-01T10:59:35;7.37;;;2.30;;
18322;SDS011;9287;49.456;11.064;2023-02-01T11:02:07;12.50;;;2.37;;
18322;SDS011;9287;49.456;11.064;2023-02-01T11:04:43;5.70;;;1.83;;
18322;SDS011;9287;49.456;11.064;2023-02-01T11:07:13;7.53;;;2.53;;
18322;SDS011;9287;49.456;11.064;2023-02-01T11:09:49;9.23;;;2.40;;
18322;SDS011;9287;49.456;11.064;2023-02-01T11:12:22;5.33;;;1.83;;
18322;SDS011;9287;49.456;11.064;2023-02-01T11:14:56;6.53;;;2.30;;
18322;SDS011;9287;49.456;11.064;2023-02-01T11:17:28;2.93;;;1.40;;
18322;SDS011;9287;49.456;11.064;2023-02-01T11:20:02;8.20;;;1.47;;
18322;SDS011;9287;49.456;11.064;2023-02-01T11:22:33;5.07;;;1.50;;
18322;SDS011;9287;49.456;11.064;2023-02-01T11:25:02;10.50;;;2.00;;
18322;SDS011;9287;49.456;11.064;2023-02-01T11:27:36;4.27;;;1.37;;
18322;SDS011;9287;49.456;11.064;2023-02-01T11:30:22;5.10;;;1.37;;
18322;SDS011;9287;49.456;11.064;2023-02-01T11:32:59;6.30;;;1.57;;
18322;SDS011;9287;49.456;11.064;2023-02-01T11:35:30;5.37;;;1.30;;
18322;SDS011;9287;49.456;11.064;2023-02-01T11:37:59;4.93;;;1.30;;
18322;SDS011;9287;49.456;11.064;2023-02-01T11:40:34;6.80;;;1.47;;
18322;SDS011;9287;49.456;11.064;2023-02-01T11:43:07;5.43;;;1.17;;
18322;SDS011;9287;49.456;11.064;2023-02-01T11:45:37;4.07;;;1.10;;
18322;SDS011;9287;49.456;11.064;2023-02-01T11:48:07;7.40;;;2.40;;
18322;SDS011;9287;49.456;11.064;2023-02-01T11:50:44;9.17;;;1.50;;
18322;SDS011;9287;49.456;11.064;2023-02-01T11:53:26;8.00;;;1.73;;
18322;SDS011;9287;49.456;11.064;2023-02-01T11:56:11;6.40;;;1.87;;
18322;SDS011;9287;49.456;11.064;2023-02-01T11:58:57;4.67;;;1.47;;
18322;SDS011;9287;49.456;11.064;2023-02-01T12:04:35;4.97;;;1.63;;
18322;SDS011;9287;49.456;11.064;2023-02-01T12:07:24;10.83;;;2.00;;
18322;SDS011;9287;49.456;11.064;2023-02-01T12:10:05;6.17;;;1.67;;
18322;SDS011;9287;49.456;11.064;2023-02-01T12:12:50;5.10;;;1.90;;
18322;SDS011;9287;49.456;11.064;2023-02-01T12:15:33;6.27;;;3.53;;
18322;SDS011;9287;49.456;11.064;2023-02-01T12:18:26;6.80;;;1.97;;
18322;SDS011;9287;49.456;11.064;2023-02-01T12:21:18;7.47;;;1.60;;
18322;SDS011;9287;49.456;11.064;2023-02-01T12:24:15;7.97;;;1.90;;
18322;SDS011;9287;49.456;11.064;2023-02-01T12:26:58;4.20;;;1.00;;
18322;SDS011;9287;49.456;11.064;2023-02-01T12:29:42;10.13;;;1.97;;
18322;SDS011;9287;49.456;11.064;2023-02-01T12:32:25;6.63;;;1.40;;
18322;SDS011;9287;49.456;11.064;2023-02-01T12:35:09;5.43;;;1.10;;
18322;SDS011;9287;49.456;11.064;2023-02-01T12:38:18;2.33;;;1.00;;
18322;SDS011;9287;49.456;11.064;2023-02-01T12:41:03;6.13;;;1.40;;
18322;SDS011;9287;49.456;11.064;2023-02-01T12:43:43;5.00;;;1.83;;
18322;SDS011;9287;49.456;11.064;2023-02-01T12:46:16;6.70;;;2.10;;
18322;SDS011;9287;49.456;11.064;2023-02-01T12:48:50;5.63;;;1.40;;
18322;SDS011;9287;49.456;11.064;2023-02-01T12:51:25;6.83;;;1.90;;
18322;SDS011;9287;49.456;11.064;2023-02-01T12:53:57;9.30;;;1.97;;
18322;SDS011;9287;49.456;11.064;2023-02-01T12:56:31;3.67;;;1.37;;
18322;SDS011;9287;49.456;11.064;2023-02-01T12:59:02;3.20;;;1.40;;
18322;SDS011;9287;49.456;11.064;2023-02-01T13:01:39;6.67;;;1.33;;
18322;SDS011;9287;49.456;11.064;2023-02-01T13:04:13;3.67;;;1.30;;
18322;SDS011;9287;49.456;11.064;2023-02-01T13:06:47;8.17;;;1.70;;
18322;SDS011;9287;49.456;11.064;2023-02-01T13:09:20;8.07;;;1.97;;
18322;SDS011;9287;49.456;11.064;2023-02-01T13:11:53;5.47;;;1.73;;
18322;SDS011;9287;49.456;11.064;2023-02-01T13:14:27;4.77;;;1.50;;
18322;SDS011;9287;49.456;11.064;2023-02-01T13:17:02;10.00;;;1.50;;
18322;SDS011;9287;49.456;11.064;2023-02-01T13:19:35;5.80;;;1.60;;
18322;SDS011;9287;49.456;11.064;2023-02-01T13:22:10;6.73;;;1.93;;
18322;SDS011;9287;49.456;11.064;2023-02-01T13:24:43;4.80;;;1.50;;
18322;SDS011;9287;49.456;11.064;2023-02-01T13:27:15;9.20;;;1.37;;
18322;SDS011;9287;49.456;11.064;2023-02-01T13:29:47;4.63;;;1.70;;
18322;SDS011;9287;49.456;11.064;2023-02-01T13:32:26;7.23;;;1.67;;
18322;SDS011;9287;49.456;11.064;2023-02-01T13:35:28;6.87;;;1.93;;
18322;SDS011;9287;49.456;11.064;2023-02-01T13:38:25;8.50;;;2.03;;
18322;SDS011;9287;49.456;11.064;2023-02-01T13:41:10;5.63;;;2.53;;
18322;SDS011;9287;49.456;11.064;2023-02-01T13:43:53;7.63;;;2.30;;
18322;SDS011;9287;49.456;11.064;2023-02-01T13:46:24;4.43;;;1.53;;
18322;SDS011;9287;49.456;11.064;2023-02-01T13:48:55;8.37;;;2.43;;
18322;SDS011;9287;49.456;11.064;2023-02-01T13:51:34;6.10;;;1.90;;
18322;SDS011;9287;49.456;11.064;2023-02-01T13:54:04;5.03;;;1.70;;
18322;SDS011;9287;49.456;11.064;2023-02-01T13:56:39;8.17;;;1.50;;
18322;SDS011;9287;49.456;11.064;2023-02-01T14:02:48;6.30;;;1.90;;
18322;SDS011;9287;49.456;11.064;2023-02-01T14:08:40;6.77;;;1.30;;
18322;SDS011;9287;49.456;11.064;2023-02-01T14:23:21;8.53;;;1.50;;
18322;SDS011;9287;49.456;11.064;2023-02-01T14:26:05;6.27;;;1.70;;
18322;SDS011;9287;49.456;11.064;2023-02-01T14:28:36;8.47;;;1.60;;
18322;SDS011;9287;49.456;11.064;2023-02-01T14:31:15;8.93;;;1.77;;
18322;SDS011;9287;49.456;11.064;2023-02-01T14:34:17;11.10;;;1.93;;
18322;SDS011;9287;49.456;11.064;2023-02-01T14:36:50;6.80;;;1.80;;
18322;SDS011;9287;49.456;11.064;2023-02-01T14:42:24;6.37;;;1.77;;
18322;SDS011;9287;49.456;11.064;2023-02-01T14:44:54;10.30;;;1.63;;
18322;SDS011;9287;49.456;11.064;2023-02-01T14:47:27;10.27;;;2.13;;
18322;SDS011;9287;49.456;11.064;2023-02-01T14:50:03;10.13;;;2.43;;
18322;SDS011;9287;49.456;11.064;2023-02-01T14:52:41;8.67;;;2.40;;
18322;SDS011;9287;49.456;11.064;2023-02-01T14:55:13;6.70;;;1.33;;
18322;SDS011;9287;49.456;11.064;2023-02-01T14:57:45;8.23;;;1.80;;
18322;SDS011;9287;49.456;11.064;2023-02-01T15:00:19;4.20;;;1.80;;
18322;SDS011;9287;49.456;11.064;2023-02-01T15:02:49;7.70;;;1.93;;
18322;SDS011;9287;49.456;11.064;2023-02-01T15:05:24;6.60;;;1.97;;
18322;SDS011;9287;49.456;11.064;2023-02-01T15:07:57;11.97;;;2.17;;
18322;SDS011;9287;49.456;11.064;2023-02-01T15:10:32;7.30;;;1.50;;
18322;SDS011;9287;49.456;11.064;2023-02-01T15:13:12;9.00;;;1.80;;
18322;SDS011;9287;49.456;11.064;2023-02-01T15:15:59;8.20;;;1.83;;
18322;SDS011;9287;49.456;11.064;2023-02-01T15:18:27;10.00;;;2.10;;
18322;SDS011;9287;49.456;11.064;2023-02-01T15:20:58;8.43;;;1.53;;
18322;SDS011;9287;49.456;11.064;2023-02-01T15:23:48;7.03;;;2.57;;
18322;SDS011;9287;49.456;11.064;2023-02-01T15:26:28;7.27;;;1.70;;
18322;SDS011;9287;49.456;11.064;2023-02-01T15:28:58;7.27;;;2.07;;
18322;SDS011;9287;49.456;11.064;2023-02-01T15:31:33;11.93;;;2.27;;
18322;SDS011;9287;49.456;11.064;2023-02-01T15:34:02;6.43;;;1.70;;
18322;SDS011;9287;49.456;11.064;2023-02-01T15:36:30;9.53;;;2.30;;
18322;SDS011;9287;49.456;11.064;2023-02-01T15:42:00;8.57;;;2.00;;
18322;SDS011;9287;49.456;11.064;2023-02-01T15:44:38;7.13;;;1.70;;
18322;SDS011;9287;49.456;11.064;2023-02-01T15:47:12;8.90;;;2.33;;
18322;SDS011;9287;49.456;11.064;2023-02-01T15:49:43;7.33;;;2.07;;
18322;SDS011;9287;49.456;11.064;2023-02-01T15:52:18;5.13;;;1.90;;
18322;SDS011;9287;49.456;11.064;2023-02-01T15:54:52;7.47;;;1.50;;
18322;SDS011;9287;49.456;11.064;2023-02-01T15:57:23;8.53;;;1.40;;
18322;SDS011;9287;49.456;11.064;2023-02-01T15:59:57;11.90;;;1.60;;